Shelby, North Carolina
Current Conditions -  °F | °C
As of 7:55 PM on Wednesday 22 Oct 2014 (Local Time) from KEHO Reporting Station
Clear Clear  
Wind Chill: 51°   Ceiling: Unl
Heat Index: 51°   Visibility: 10mi
Dew Point: 39°   Wind: 5mph
Humidity: 63%   Direction: 300°WNW
Pressure: 30.11"   Gusts: NA
Location:  35.29°N, 81.54°W
Report Text: KEHO 222355Z AUTO 30004KT 10SM CLR 11/04 A3011 RMK AO2 T01050038 10180 20104
Loading
Personal Weather Stations






























Interactive Weather Map
Tropical Storm Tracking
New forecast layout! Learn more

10-Day Weather Forecast

Advertisements
Track Severe Weather on mobile